sensor_id;sensor_type;location;lat;lon;timestamp;temperature;humidity
2967;DHT22;1493;51.496;7.210;2024-01-16T00:00:26;2.00;99.90
2967;DHT22;1493;51.496;7.210;2024-01-16T00:02:53;2.10;99.90
2967;DHT22;1493;51.496;7.210;2024-01-16T00:05:20;2.10;99.90
2967;DHT22;1493;51.496;7.210;2024-01-16T00:07:46;2.00;99.90
2967;DHT22;1493;51.496;7.210;2024-01-16T00:10:16;2.00;99.90
2967;DHT22;1493;51.496;7.210;2024-01-16T00:12:43;2.10;99.90
2967;DHT22;1493;51.496;7.210;2024-01-16T00:15:10;2.10;99.90
2967;DHT22;1493;51.496;7.210;2024-01-16T00:17:38;2.10;99.90
2967;DHT22;1493;51.496;7.210;2024-01-16T00:20:06;2.10;99.90
2967;DHT22;1493;51.496;7.210;2024-01-16T00:22:33;2.10;99.90
2967;DHT22;1493;51.496;7.210;2024-01-16T00:25:00;2.10;99.90
2967;DHT22;1493;51.496;7.210;2024-01-16T00:27:30;2.10;99.90
2967;DHT22;1493;51.496;7.210;2024-01-16T00:29:57;2.20;99.90
2967;DHT22;1493;51.496;7.210;2024-01-16T00:32:23;2.10;99.90
2967;DHT22;1493;51.496;7.210;2024-01-16T00:34:52;2.20;99.90
2967;DHT22;1493;51.496;7.210;2024-01-16T00:37:18;2.10;99.90
2967;DHT22;1493;51.496;7.210;2024-01-16T00:39:46;2.10;99.90
2967;DHT22;1493;51.496;7.210;2024-01-16T00:42:13;2.10;99.90
2967;DHT22;1493;51.496;7.210;2024-01-16T00:44:40;2.10;99.90
2967;DHT22;1493;51.496;7.210;2024-01-16T00:47:06;2.10;99.90
2967;DHT22;1493;51.496;7.210;2024-01-16T00:49:35;2.10;99.90
2967;DHT22;1493;51.496;7.210;2024-01-16T00:52:04;2.10;99.90
2967;DHT22;1493;51.496;7.210;2024-01-16T00:54:32;2.10;99.90
2967;DHT22;1493;51.496;7.210;2024-01-16T00:56:59;2.20;99.90
2967;DHT22;1493;51.496;7.210;2024-01-16T00:59:26;2.10;99.90
2967;DHT22;1493;51.496;7.210;2024-01-16T01:01:52;2.00;99.90
2967;DHT22;1493;51.496;7.210;2024-01-16T01:04:19;2.00;99.90
2967;DHT22;1493;51.496;7.210;2024-01-16T01:06:46;2.10;99.90
2967;DHT22;1493;51.496;7.210;2024-01-16T01:09:14;2.10;99.90
2967;DHT22;1493;51.496;7.210;2024-01-16T01:11:41;2.10;99.90
2967;DHT22;1493;51.496;7.210;2024-01-16T01:14:08;2.10;99.90
2967;DHT22;1493;51.496;7.210;2024-01-16T01:16:35;2.10;99.90
2967;DHT22;1493;51.496;7.210;2024-01-16T01:19:02;2.10;99.90
2967;DHT22;1493;51.496;7.210;2024-01-16T01:21:29;2.10;99.90
2967;DHT22;1493;51.496;7.210;2024-01-16T01:23:56;2.10;99.90
2967;DHT22;1493;51.496;7.210;2024-01-16T01:26:24;2.10;99.90
2967;DHT22;1493;51.496;7.210;2024-01-16T01:28:51;2.00;99.90
2967;DHT22;1493;51.496;7.210;2024-01-16T01:31:18;2.10;99.90
2967;DHT22;1493;51.496;7.210;2024-01-16T01:33:44;2.00;99.90
2967;DHT22;1493;51.496;7.210;2024-01-16T01:36:11;2.00;99.90
2967;DHT22;1493;51.496;7.210;2024-01-16T01:38:38;1.80;99.90
2967;DHT22;1493;51.496;7.210;2024-01-16T01:41:05;1.80;99.90
2967;DHT22;1493;51.496;7.210;2024-01-16T01:43:33;1.80;99.90
2967;DHT22;1493;51.496;7.210;2024-01-16T01:46:09;1.80;99.90
2967;DHT22;1493;51.496;7.210;2024-01-16T01:48:37;1.90;99.90
2967;DHT22;1493;51.496;7.210;2024-01-16T01:51:06;1.90;99.90
2967;DHT22;1493;51.496;7.210;2024-01-16T01:53:34;1.80;99.90
2967;DHT22;1493;51.496;7.210;2024-01-16T01:56:03;1.80;99.90
2967;DHT22;1493;51.496;7.210;2024-01-16T01:58:33;1.80;99.90
2967;DHT22;1493;51.496;7.210;2024-01-16T02:01:01;1.80;99.90
2967;DHT22;1493;51.496;7.210;2024-01-16T02:03:29;1.90;99.90
2967;DHT22;1493;51.496;7.210;2024-01-16T02:05:59;1.80;99.90
2967;DHT22;1493;51.496;7.210;2024-01-16T02:08:26;1.90;99.90
2967;DHT22;1493;51.496;7.210;2024-01-16T02:10:53;1.90;99.90
2967;DHT22;1493;51.496;7.210;2024-01-16T02:13:20;2.00;99.90
2967;DHT22;1493;51.496;7.210;2024-01-16T02:15:50;2.00;99.90
2967;DHT22;1493;51.496;7.210;2024-01-16T02:18:17;1.90;99.90
2967;DHT22;1493;51.496;7.210;2024-01-16T02:20:44;2.00;99.90
2967;DHT22;1493;51.496;7.210;2024-01-16T02:23:13;2.00;99.90
2967;DHT22;1493;51.496;7.210;2024-01-16T02:25:42;2.00;99.90
2967;DHT22;1493;51.496;7.210;2024-01-16T02:28:10;2.00;99.90
2967;DHT22;1493;51.496;7.210;2024-01-16T02:30:37;1.90;99.90
2967;DHT22;1493;51.496;7.210;2024-01-16T02:33:04;1.90;99.90
2967;DHT22;1493;51.496;7.210;2024-01-16T02:35:31;1.90;99.90
2967;DHT22;1493;51.496;7.210;2024-01-16T02:37:57;1.90;99.90
2967;DHT22;1493;51.496;7.210;2024-01-16T02:40:25;1.90;99.90
2967;DHT22;1493;51.496;7.210;2024-01-16T02:42:54;1.90;99.90
2967;DHT22;1493;51.496;7.210;2024-01-16T02:45:20;1.80;99.90
2967;DHT22;1493;51.496;7.210;2024-01-16T02:47:48;1.80;99.90
2967;DHT22;1493;51.496;7.210;2024-01-16T02:50:15;1.80;99.90
2967;DHT22;1493;51.496;7.210;2024-01-16T02:52:42;1.90;99.90
2967;DHT22;1493;51.496;7.210;2024-01-16T02:55:09;1.80;99.90
2967;DHT22;1493;51.496;7.210;2024-01-16T02:57:36;1.80;99.90
2967;DHT22;1493;51.496;7.210;2024-01-16T03:00:05;1.90;99.90
2967;DHT22;1493;51.496;7.210;2024-01-16T03:02:33;1.80;99.90
2967;DHT22;1493;51.496;7.210;2024-01-16T03:05:00;1.80;99.90
2967;DHT22;1493;51.496;7.210;2024-01-16T03:07:29;1.90;99.90
2967;DHT22;1493;51.496;7.210;2024-01-16T03:09:55;1.90;99.90
2967;DHT22;1493;51.496;7.210;2024-01-16T03:12:25;1.90;99.90
2967;DHT22;1493;51.496;7.210;2024-01-16T03:14:52;1.80;99.90
2967;DHT22;1493;51.496;7.210;2024-01-16T03:17:21;1.80;99.90
2967;DHT22;1493;51.496;7.210;2024-01-16T03:19:48;1.80;99.90
2967;DHT22;1493;51.496;7.210;2024-01-16T03:22:14;1.80;99.90
2967;DHT22;1493;51.496;7.210;2024-01-16T03:24:41;1.80;99.90
2967;DHT22;1493;51.496;7.210;2024-01-16T03:27:08;1.90;99.90
2967;DHT22;1493;51.496;7.210;2024-01-16T03:29:35;2.00;99.90
2967;DHT22;1493;51.496;7.210;2024-01-16T03:32:02;2.00;99.90
2967;DHT22;1493;51.496;7.210;2024-01-16T03:34:31;2.10;99.90
2967;DHT22;1493;51.496;7.210;2024-01-16T03:36:58;2.10;99.90
2967;DHT22;1493;51.496;7.210;2024-01-16T03:39:25;2.10;99.90
2967;DHT22;1493;51.496;7.210;2024-01-16T03:41:51;2.20;99.90
2967;DHT22;1493;51.496;7.210;2024-01-16T03:44:18;2.10;99.90
2967;DHT22;1493;51.496;7.210;2024-01-16T03:46:45;2.10;99.90
2967;DHT22;1493;51.496;7.210;2024-01-16T03:49:12;2.10;99.90
2967;DHT22;1493;51.496;7.210;2024-01-16T03:51:40;2.10;99.90
2967;DHT22;1493;51.496;7.210;2024-01-16T03:54:11;2.10;99.90
2967;DHT22;1493;51.496;7.210;2024-01-16T03:56:38;2.10;99.90
2967;DHT22;1493;51.496;7.210;2024-01-16T03:59:05;2.10;99.90
2967;DHT22;1493;51.496;7.210;2024-01-16T04:01:32;2.10;99.90
2967;DHT22;1493;51.496;7.210;2024-01-16T04:03:59;2.10;99.90
2967;DHT22;1493;51.496;7.210;2024-01-16T04:06:26;2.10;99.90
2967;DHT22;1493;51.496;7.210;2024-01-16T04:08:55;2.00;99.90
2967;DHT22;1493;51.496;7.210;2024-01-16T04:11:22;2.00;99.90
2967;DHT22;1493;51.496;7.210;2024-01-16T04:13:49;2.00;99.90
2967;DHT22;1493;51.496;7.210;2024-01-16T04:16:16;2.00;99.90
2967;DHT22;1493;51.496;7.210;2024-01-16T04:18:43;2.00;99.90
2967;DHT22;1493;51.496;7.210;2024-01-16T04:21:10;1.90;99.90
2967;DHT22;1493;51.496;7.210;2024-01-16T04:23:37;1.90;99.90
2967;DHT22;1493;51.496;7.210;2024-01-16T04:26:05;2.00;99.90
2967;DHT22;1493;51.496;7.210;2024-01-16T04:28:33;2.10;99.90
2967;DHT22;1493;51.496;7.210;2024-01-16T04:31:00;2.00;99.90
2967;DHT22;1493;51.496;7.210;2024-01-16T04:33:27;2.10;99.90
2967;DHT22;1493;51.496;7.210;2024-01-16T04:35:54;2.10;99.90
2967;DHT22;1493;51.496;7.210;2024-01-16T04:38:21;2.10;99.90
2967;DHT22;1493;51.496;7.210;2024-01-16T04:40:52;2.20;99.90
2967;DHT22;1493;51.496;7.210;2024-01-16T04:43:20;2.20;99.90
2967;DHT22;1493;51.496;7.210;2024-01-16T04:45:46;2.20;99.90
2967;DHT22;1493;51.496;7.210;2024-01-16T04:48:13;2.20;99.90
2967;DHT22;1493;51.496;7.210;2024-01-16T04:50:40;2.20;99.90
2967;DHT22;1493;51.496;7.210;2024-01-16T04:53:07;2.10;99.90
2967;DHT22;1493;51.496;7.210;2024-01-16T04:55:33;2.00;99.90
2967;DHT22;1493;51.496;7.210;2024-01-16T04:58:00;2.00;99.90
2967;DHT22;1493;51.496;7.210;2024-01-16T05:00:28;2.00;99.90
2967;DHT22;1493;51.496;7.210;2024-01-16T05:02:55;2.10;99.90
2967;DHT22;1493;51.496;7.210;2024-01-16T05:05:22;2.10;99.90
2967;DHT22;1493;51.496;7.210;2024-01-16T05:07:49;2.20;99.90
2967;DHT22;1493;51.496;7.210;2024-01-16T05:10:16;2.10;99.90
2967;DHT22;1493;51.496;7.210;2024-01-16T05:12:43;2.10;99.90
2967;DHT22;1493;51.496;7.210;2024-01-16T05:15:11;2.10;99.90
2967;DHT22;1493;51.496;7.210;2024-01-16T05:17:39;2.20;99.90
2967;DHT22;1493;51.496;7.210;2024-01-16T05:20:07;2.20;99.90
2967;DHT22;1493;51.496;7.210;2024-01-16T05:22:35;2.10;99.90
2967;DHT22;1493;51.496;7.210;2024-01-16T05:25:04;2.10;99.90
2967;DHT22;1493;51.496;7.210;2024-01-16T05:27:32;2.20;99.90
2967;DHT22;1493;51.496;7.210;2024-01-16T05:29:59;2.00;99.90
2967;DHT22;1493;51.496;7.210;2024-01-16T05:32:26;2.00;99.90
2967;DHT22;1493;51.496;7.210;2024-01-16T05:34:54;2.10;99.90
2967;DHT22;1493;51.496;7.210;2024-01-16T05:37:21;2.10;99.90
2967;DHT22;1493;51.496;7.210;2024-01-16T05:39:48;2.10;99.90
2967;DHT22;1493;51.496;7.210;2024-01-16T05:42:15;2.00;99.90
2967;DHT22;1493;51.496;7.210;2024-01-16T05:44:43;2.00;99.90
2967;DHT22;1493;51.496;7.210;2024-01-16T05:47:09;2.10;99.90
2967;DHT22;1493;51.496;7.210;2024-01-16T05:49:39;2.30;99.90
2967;DHT22;1493;51.496;7.210;2024-01-16T05:52:08;2.20;99.90
2967;DHT22;1493;51.496;7.210;2024-01-16T05:54:35;2.20;99.90
2967;DHT22;1493;51.496;7.210;2024-01-16T05:57:02;2.10;99.90
2967;DHT22;1493;51.496;7.210;2024-01-16T05:59:29;2.10;99.90
2967;DHT22;1493;51.496;7.210;2024-01-16T06:01:59;2.10;99.90
2967;DHT22;1493;51.496;7.210;2024-01-16T06:04:25;2.00;99.90
2967;DHT22;1493;51.496;7.210;2024-01-16T06:06:55;2.00;99.90
2967;DHT22;1493;51.496;7.210;2024-01-16T06:09:23;2.00;99.90
2967;DHT22;1493;51.496;7.210;2024-01-16T06:11:50;2.00;99.90
2967;DHT22;1493;51.496;7.210;2024-01-16T06:14:17;1.90;99.90
2967;DHT22;1493;51.496;7.210;2024-01-16T06:16:47;1.90;99.90
2967;DHT22;1493;51.496;7.210;2024-01-16T06:19:13;2.00;99.90
2967;DHT22;1493;51.496;7.210;2024-01-16T06:21:41;2.00;99.90
2967;DHT22;1493;51.496;7.210;2024-01-16T06:24:08;2.00;99.90
2967;DHT22;1493;51.496;7.210;2024-01-16T06:26:38;1.90;99.90
2967;DHT22;1493;51.496;7.210;2024-01-16T06:29:06;2.00;99.90
2967;DHT22;1493;51.496;7.210;2024-01-16T06:31:33;2.00;99.90
2967;DHT22;1493;51.496;7.210;2024-01-16T06:33:59;2.00;99.90
2967;DHT22;1493;51.496;7.210;2024-01-16T06:36:26;2.00;99.90
2967;DHT22;1493;51.496;7.210;2024-01-16T06:38:59;1.90;99.90
2967;DHT22;1493;51.496;7.210;2024-01-16T06:41:29;2.00;99.90
2967;DHT22;1493;51.496;7.210;2024-01-16T06:43:57;2.00;99.90
2967;DHT22;1493;51.496;7.210;2024-01-16T06:46:24;2.00;99.90
2967;DHT22;1493;51.496;7.210;2024-01-16T06:48:51;2.00;99.90
2967;DHT22;1493;51.496;7.210;2024-01-16T06:51:17;1.90;99.90
2967;DHT22;1493;51.496;7.210;2024-01-16T06:53:44;1.00;99.90
2967;DHT22;1493;51.496;7.210;2024-01-16T06:56:11;2.00;99.90
2967;DHT22;1493;51.496;7.210;2024-01-16T06:58:38;2.00;99.90
2967;DHT22;1493;51.496;7.210;2024-01-16T07:01:09;2.10;99.90
2967;DHT22;1493;51.496;7.210;2024-01-16T07:03:35;2.10;99.90
2967;DHT22;1493;51.496;7.210;2024-01-16T07:06:03;2.10;99.90
2967;DHT22;1493;51.496;7.210;2024-01-16T07:08:30;2.10;99.90
2967;DHT22;1493;51.496;7.210;2024-01-16T07:10:56;2.00;99.90
2967;DHT22;1493;51.496;7.210;2024-01-16T07:13:23;1.90;99.90
2967;DHT22;1493;51.496;7.210;2024-01-16T07:15:50;1.90;99.90
2967;DHT22;1493;51.496;7.210;2024-01-16T07:18:18;1.80;99.90
2967;DHT22;1493;51.496;7.210;2024-01-16T07:20:45;1.90;99.90
2967;DHT22;1493;51.496;7.210;2024-01-16T07:23:12;1.80;99.90
2967;DHT22;1493;51.496;7.210;2024-01-16T07:25:39;1.70;99.90
2967;DHT22;1493;51.496;7.210;2024-01-16T07:28:06;1.70;99.90
2967;DHT22;1493;51.496;7.210;2024-01-16T07:30:34;1.60;99.90
2967;DHT22;1493;51.496;7.210;2024-01-16T07:33:02;1.70;99.90
2967;DHT22;1493;51.496;7.210;2024-01-16T07:35:30;1.60;99.90
2967;DHT22;1493;51.496;7.210;2024-01-16T07:37:57;1.70;99.90
2967;DHT22;1493;51.496;7.210;2024-01-16T07:40:24;1.60;99.90
2967;DHT22;1493;51.496;7.210;2024-01-16T07:42:51;1.60;99.90
2967;DHT22;1493;51.496;7.210;2024-01-16T07:45:18;1.60;99.90
2967;DHT22;1493;51.496;7.210;2024-01-16T07:47:44;1.60;99.90
2967;DHT22;1493;51.496;7.210;2024-01-16T07:50:11;1.60;99.90
2967;DHT22;1493;51.496;7.210;2024-01-16T07:52:40;1.60;99.90
2967;DHT22;1493;51.496;7.210;2024-01-16T07:55:06;1.60;99.90
2967;DHT22;1493;51.496;7.210;2024-01-16T07:57:33;1.50;99.90
2967;DHT22;1493;51.496;7.210;2024-01-16T08:00:00;1.60;99.90
2967;DHT22;1493;51.496;7.210;2024-01-16T08:02:34;1.60;99.90
2967;DHT22;1493;51.496;7.210;2024-01-16T08:05:03;1.60;99.90
2967;DHT22;1493;51.496;7.210;2024-01-16T08:07:30;1.50;99.90
2967;DHT22;1493;51.496;7.210;2024-01-16T08:09:58;1.60;99.90
2967;DHT22;1493;51.496;7.210;2024-01-16T08:12:25;1.70;99.90
2967;DHT22;1493;51.496;7.210;2024-01-16T08:14:51;1.70;99.90
2967;DHT22;1493;51.496;7.210;2024-01-16T08:17:18;1.80;99.90
2967;DHT22;1493;51.496;7.210;2024-01-16T08:19:45;1.70;99.90
2967;DHT22;1493;51.496;7.210;2024-01-16T08:22:12;1.80;99.90
2967;DHT22;1493;51.496;7.210;2024-01-16T08:24:39;1.80;99.90
2967;DHT22;1493;51.496;7.210;2024-01-16T08:27:07;1.80;99.90
2967;DHT22;1493;51.496;7.210;2024-01-16T08:29:34;1.70;99.90
2967;DHT22;1493;51.496;7.210;2024-01-16T08:32:00;1.80;99.90
2967;DHT22;1493;51.496;7.210;2024-01-16T08:34:27;1.80;99.90
2967;DHT22;1493;51.496;7.210;2024-01-16T08:36:54;1.80;99.90
2967;DHT22;1493;51.496;7.210;2024-01-16T08:39:22;1.80;99.90
2967;DHT22;1493;51.496;7.210;2024-01-16T08:41:49;1.90;99.90
2967;DHT22;1493;51.496;7.210;2024-01-16T08:44:17;1.80;99.90
2967;DHT22;1493;51.496;7.210;2024-01-16T08:46:44;1.90;99.90
2967;DHT22;1493;51.496;7.210;2024-01-16T08:49:11;1.90;99.90
2967;DHT22;1493;51.496;7.210;2024-01-16T08:51:39;1.80;99.90
2967;DHT22;1493;51.496;7.210;2024-01-16T08:54:06;1.80;99.90
2967;DHT22;1493;51.496;7.210;2024-01-16T08:56:33;1.70;99.90
2967;DHT22;1493;51.496;7.210;2024-01-16T08:59:00;1.70;99.90
2967;DHT22;1493;51.496;7.210;2024-01-16T09:01:28;1.70;99.90
2967;DHT22;1493;51.496;7.210;2024-01-16T09:03:56;1.70;99.90
2967;DHT22;1493;51.496;7.210;2024-01-16T09:06:22;1.70;99.90
2967;DHT22;1493;51.496;7.210;2024-01-16T09:08:49;1.70;99.90
2967;DHT22;1493;51.496;7.210;2024-01-16T09:11:16;1.80;99.90
2967;DHT22;1493;51.496;7.210;2024-01-16T09:13:43;1.80;99.90
2967;DHT22;1493;51.496;7.210;2024-01-16T09:16:10;1.80;99.90
2967;DHT22;1493;51.496;7.210;2024-01-16T09:18:38;1.90;99.90
2967;DHT22;1493;51.496;7.210;2024-01-16T09:21:05;1.90;99.90
2967;DHT22;1493;51.496;7.210;2024-01-16T09:23:31;1.90;99.90
2967;DHT22;1493;51.496;7.210;2024-01-16T09:25:59;1.80;99.90
2967;DHT22;1493;51.496;7.210;2024-01-16T09:28:25;1.80;99.90
2967;DHT22;1493;51.496;7.210;2024-01-16T09:30:54;1.90;99.90
2967;DHT22;1493;51.496;7.210;2024-01-16T09:33:21;1.90;99.90
2967;DHT22;1493;51.496;7.210;2024-01-16T09:35:49;1.80;99.90
2967;DHT22;1493;51.496;7.210;2024-01-16T09:38:16;1.80;99.90
2967;DHT22;1493;51.496;7.210;2024-01-16T09:40:43;2.00;99.90
2967;DHT22;1493;51.496;7.210;2024-01-16T09:43:12;2.10;99.90
2967;DHT22;1493;51.496;7.210;2024-01-16T09:45:39;2.30;99.90
2967;DHT22;1493;51.496;7.210;2024-01-16T09:48:06;2.30;99.90
2967;DHT22;1493;51.496;7.210;2024-01-16T09:50:34;2.30;99.90
2967;DHT22;1493;51.496;7.210;2024-01-16T09:53:08;2.50;99.90
2967;DHT22;1493;51.496;7.210;2024-01-16T09:55:36;2.40;99.90
2967;DHT22;1493;51.496;7.210;2024-01-16T09:58:10;2.50;99.90
2967;DHT22;1493;51.496;7.210;2024-01-16T10:00:43;2.30;99.90
2967;DHT22;1493;51.496;7.210;2024-01-16T10:03:11;2.40;99.90
2967;DHT22;1493;51.496;7.210;2024-01-16T10:05:39;2.60;99.90
2967;DHT22;1493;51.496;7.210;2024-01-16T10:08:08;2.50;99.90
2967;DHT22;1493;51.496;7.210;2024-01-16T10:10:35;2.50;99.90
2967;DHT22;1493;51.496;7.210;2024-01-16T10:13:06;2.60;99.90
2967;DHT22;1493;51.496;7.210;2024-01-16T10:15:51;2.60;99.90
2967;DHT22;1493;51.496;7.210;2024-01-16T10:18:36;2.60;99.90
2967;DHT22;1493;51.496;7.210;2024-01-16T10:21:04;2.70;99.90
2967;DHT22;1493;51.496;7.210;2024-01-16T10:23:33;2.70;99.90
2967;DHT22;1493;51.496;7.210;2024-01-16T10:26:06;2.90;99.90
2967;DHT22;1493;51.496;7.210;2024-01-16T10:28:33;3.00;99.90
2967;DHT22;1493;51.496;7.210;2024-01-16T10:31:04;3.00;99.90
2967;DHT22;1493;51.496;7.210;2024-01-16T10:33:31;3.00;99.90
2967;DHT22;1493;51.496;7.210;2024-01-16T10:36:11;3.10;99.90
2967;DHT22;1493;51.496;7.210;2024-01-16T10:38:41;3.20;99.90
2967;DHT22;1493;51.496;7.210;2024-01-16T10:41:10;3.30;99.90
2967;DHT22;1493;51.496;7.210;2024-01-16T10:43:37;3.30;99.90
2967;DHT22;1493;51.496;7.210;2024-01-16T10:46:09;3.30;99.90
2967;DHT22;1493;51.496;7.210;2024-01-16T10:48:38;3.40;99.90
2967;DHT22;1493;51.496;7.210;2024-01-16T10:51:09;3.40;99.90
2967;DHT22;1493;51.496;7.210;2024-01-16T10:53:41;3.40;99.90
2967;DHT22;1493;51.496;7.210;2024-01-16T10:56:10;3.60;99.90
2967;DHT22;1493;51.496;7.210;2024-01-16T10:58:40;3.70;99.90
2967;DHT22;1493;51.496;7.210;2024-01-16T11:01:10;3.90;99.90
2967;DHT22;1493;51.496;7.210;2024-01-16T11:03:40;3.80;99.90
2967;DHT22;1493;51.496;7.210;2024-01-16T11:06:10;4.10;99.90
2967;DHT22;1493;51.496;7.210;2024-01-16T11:08:40;4.10;99.90
2967;DHT22;1493;51.496;7.210;2024-01-16T11:11:08;4.10;99.90
2967;DHT22;1493;51.496;7.210;2024-01-16T11:13:41;3.80;99.90
2967;DHT22;1493;51.496;7.210;2024-01-16T11:16:11;3.80;99.90
2967;DHT22;1493;51.496;7.210;2024-01-16T11:18:38;3.80;99.90
2967;DHT22;1493;51.496;7.210;2024-01-16T11:21:07;3.40;99.90
2967;DHT22;1493;51.496;7.210;2024-01-16T11:23:35;3.40;99.90
2967;DHT22;1493;51.496;7.210;2024-01-16T11:26:28;3.30;99.90
2967;DHT22;1493;51.496;7.210;2024-01-16T11:28:58;3.60;99.90
2967;DHT22;1493;51.496;7.210;2024-01-16T11:31:30;3.90;99.90
2967;DHT22;1493;51.496;7.210;2024-01-16T11:33:57;4.40;99.90
2967;DHT22;1493;51.496;7.210;2024-01-16T11:36:47;4.80;99.90
2967;DHT22;1493;51.496;7.210;2024-01-16T11:39:19;5.80;99.90
2967;DHT22;1493;51.496;7.210;2024-01-16T11:41:55;7.30;99.90
2967;DHT22;1493;51.496;7.210;2024-01-16T11:44:39;8.60;99.90
2967;DHT22;1493;51.496;7.210;2024-01-16T11:47:05;8.60;96.50
2967;DHT22;1493;51.496;7.210;2024-01-16T11:49:33;9.00;95.70
2967;DHT22;1493;51.496;7.210;2024-01-16T11:51:59;9.10;96.10
2967;DHT22;1493;51.496;7.210;2024-01-16T11:54:27;9.90;93.20
2967;DHT22;1493;51.496;7.210;2024-01-16T11:57:30;10.90;90.40
2967;DHT22;1493;51.496;7.210;2024-01-16T12:00:03;11.10;85.60
2967;DHT22;1493;51.496;7.210;2024-01-16T12:02:52;10.10;92.20
2967;DHT22;1493;51.496;7.210;2024-01-16T12:05:19;9.60;85.60
2967;DHT22;1493;51.496;7.210;2024-01-16T12:07:47;8.50;91.50
2967;DHT22;1493;51.496;7.210;2024-01-16T12:10:16;8.30;90.40
2967;DHT22;1493;51.496;7.210;2024-01-16T12:12:45;9.20;90.20
2967;DHT22;1493;51.496;7.210;2024-01-16T12:15:16;9.80;86.80
2967;DHT22;1493;51.496;7.210;2024-01-16T12:17:54;11.90;84.50
2967;DHT22;1493;51.496;7.210;2024-01-16T12:20:22;13.20;78.70
2967;DHT22;1493;51.496;7.210;2024-01-16T12:22:55;13.00;74.40
2967;DHT22;1493;51.496;7.210;2024-01-16T12:45:36;9.40;77.60
2967;DHT22;1493;51.496;7.210;2024-01-16T12:48:06;6.60;86.00
2967;DHT22;1493;51.496;7.210;2024-01-16T12:50:33;6.10;88.00
2967;DHT22;1493;51.496;7.210;2024-01-16T12:53:02;5.80;89.00
2967;DHT22;1493;51.496;7.210;2024-01-16T12:55:35;5.80;90.40
2967;DHT22;1493;51.496;7.210;2024-01-16T12:58:16;5.30;90.90
2967;DHT22;1493;51.496;7.210;2024-01-16T13:00:44;5.10;92.40
2967;DHT22;1493;51.496;7.210;2024-01-16T13:03:15;5.20;93.70
2967;DHT22;1493;51.496;7.210;2024-01-16T13:05:44;5.30;98.30
2967;DHT22;1493;51.496;7.210;2024-01-16T13:08:17;5.10;99.90
2967;DHT22;1493;51.496;7.210;2024-01-16T13:10:46;5.90;99.60
2967;DHT22;1493;51.496;7.210;2024-01-16T13:13:16;5.70;97.10
2967;DHT22;1493;51.496;7.210;2024-01-16T13:15:45;5.60;98.60
2967;DHT22;1493;51.496;7.210;2024-01-16T13:18:18;5.30;99.90
2967;DHT22;1493;51.496;7.210;2024-01-16T13:20:46;5.10;99.90
2967;DHT22;1493;51.496;7.210;2024-01-16T13:23:13;4.80;99.90
2967;DHT22;1493;51.496;7.210;2024-01-16T13:25:42;4.60;99.90
2967;DHT22;1493;51.496;7.210;2024-01-16T13:28:09;4.40;99.90
2967;DHT22;1493;51.496;7.210;2024-01-16T13:30:35;4.30;99.90
2967;DHT22;1493;51.496;7.210;2024-01-16T13:33:04;4.30;99.90
2967;DHT22;1493;51.496;7.210;2024-01-16T13:35:33;3.90;99.90
2967;DHT22;1493;51.496;7.210;2024-01-16T13:38:01;4.00;99.90
2967;DHT22;1493;51.496;7.210;2024-01-16T13:40:29;4.10;99.90
2967;DHT22;1493;51.496;7.210;2024-01-16T13:42:56;3.70;99.90
2967;DHT22;1493;51.496;7.210;2024-01-16T13:45:23;4.10;99.90
2967;DHT22;1493;51.496;7.210;2024-01-16T13:47:54;4.30;99.90
2967;DHT22;1493;51.496;7.210;2024-01-16T13:50:22;4.10;99.90
2967;DHT22;1493;51.496;7.210;2024-01-16T13:52:49;4.20;99.90
2967;DHT22;1493;51.496;7.210;2024-01-16T13:55:18;4.20;99.90
2967;DHT22;1493;51.496;7.210;2024-01-16T13:57:45;4.50;99.90
2967;DHT22;1493;51.496;7.210;2024-01-16T14:00:13;4.60;99.90
2967;DHT22;1493;51.496;7.210;2024-01-16T14:02:41;4.50;99.90
2967;DHT22;1493;51.496;7.210;2024-01-16T14:05:09;4.70;99.90
2967;DHT22;1493;51.496;7.210;2024-01-16T14:07:38;4.70;99.90
2967;DHT22;1493;51.496;7.210;2024-01-16T14:10:05;4.80;99.90
2967;DHT22;1493;51.496;7.210;2024-01-16T14:12:33;4.90;99.90
2967;DHT22;1493;51.496;7.210;2024-01-16T14:15:01;5.00;99.90
2967;DHT22;1493;51.496;7.210;2024-01-16T14:17:34;5.10;99.90
2967;DHT22;1493;51.496;7.210;2024-01-16T14:20:02;5.10;99.90
2967;DHT22;1493;51.496;7.210;2024-01-16T14:22:30;5.00;99.90
2967;DHT22;1493;51.496;7.210;2024-01-16T14:25:00;5.10;99.90
2967;DHT22;1493;51.496;7.210;2024-01-16T14:27:27;4.80;99.90
2967;DHT22;1493;51.496;7.210;2024-01-16T14:29:54;4.40;99.90
2967;DHT22;1493;51.496;7.210;2024-01-16T14:32:23;4.40;99.90
2967;DHT22;1493;51.496;7.210;2024-01-16T14:34:50;3.90;99.90
2967;DHT22;1493;51.496;7.210;2024-01-16T14:37:19;3.70;99.90
2967;DHT22;1493;51.496;7.210;2024-01-16T14:39:46;3.50;99.90
2967;DHT22;1493;51.496;7.210;2024-01-16T14:42:15;3.40;99.90
2967;DHT22;1493;51.496;7.210;2024-01-16T14:44:50;3.40;99.90
2967;DHT22;1493;51.496;7.210;2024-01-16T14:47:18;3.40;99.90
2967;DHT22;1493;51.496;7.210;2024-01-16T14:49:45;3.60;99.90
2967;DHT22;1493;51.496;7.210;2024-01-16T14:52:16;3.40;99.90
2967;DHT22;1493;51.496;7.210;2024-01-16T14:54:43;3.30;99.90
2967;DHT22;1493;51.496;7.210;2024-01-16T14:57:11;3.10;99.90
2967;DHT22;1493;51.496;7.210;2024-01-16T14:59:39;3.10;99.90
2967;DHT22;1493;51.496;7.210;2024-01-16T15:02:05;3.00;99.90
2967;DHT22;1493;51.496;7.210;2024-01-16T15:04:38;2.90;99.90
2967;DHT22;1493;51.496;7.210;2024-01-16T15:07:05;2.70;99.90
2967;DHT22;1493;51.496;7.210;2024-01-16T15:09:32;2.50;99.90
2967;DHT22;1493;51.496;7.210;2024-01-16T15:12:00;2.30;99.90
2967;DHT22;1493;51.496;7.210;2024-01-16T15:14:27;2.30;99.90
2967;DHT22;1493;51.496;7.210;2024-01-16T15:16:57;2.20;99.90
2967;DHT22;1493;51.496;7.210;2024-01-16T15:19:24;2.20;99.90
2967;DHT22;1493;51.496;7.210;2024-01-16T15:21:51;2.10;99.90
2967;DHT22;1493;51.496;7.210;2024-01-16T15:24:18;2.10;99.90
2967;DHT22;1493;51.496;7.210;2024-01-16T15:26:52;1.90;99.90
2967;DHT22;1493;51.496;7.210;2024-01-16T15:29:19;1.80;99.90
2967;DHT22;1493;51.496;7.210;2024-01-16T15:31:46;1.80;99.90
2967;DHT22;1493;51.496;7.210;2024-01-16T15:34:14;1.80;99.90
2967;DHT22;1493;51.496;7.210;2024-01-16T15:36:41;1.70;99.90
2967;DHT22;1493;51.496;7.210;2024-01-16T15:39:08;1.80;99.90
2967;DHT22;1493;51.496;7.210;2024-01-16T15:41:36;1.70;99.90
2967;DHT22;1493;51.496;7.210;2024-01-16T15:44:03;1.70;99.90
2967;DHT22;1493;51.496;7.210;2024-01-16T15:46:31;1.60;99.90
2967;DHT22;1493;51.496;7.210;2024-01-16T15:48:58;1.50;99.90
2967;DHT22;1493;51.496;7.210;2024-01-16T15:51:26;1.50;99.90
2967;DHT22;1493;51.496;7.210;2024-01-16T15:53:53;1.50;99.90
2967;DHT22;1493;51.496;7.210;2024-01-16T15:56:20;1.50;99.90
2967;DHT22;1493;51.496;7.210;2024-01-16T15:58:47;1.50;99.90
2967;DHT22;1493;51.496;7.210;2024-01-16T16:01:15;1.50;99.90
2967;DHT22;1493;51.496;7.210;2024-01-16T16:03:44;1.60;99.90
2967;DHT22;1493;51.496;7.210;2024-01-16T16:06:12;1.50;99.90
2967;DHT22;1493;51.496;7.210;2024-01-16T16:08:40;1.50;99.90
2967;DHT22;1493;51.496;7.210;2024-01-16T16:11:07;1.50;99.90
2967;DHT22;1493;51.496;7.210;2024-01-16T16:13:34;1.40;99.90
2967;DHT22;1493;51.496;7.210;2024-01-16T16:16:06;1.30;99.90
2967;DHT22;1493;51.496;7.210;2024-01-16T16:18:34;1.20;99.90
2967;DHT22;1493;51.496;7.210;2024-01-16T16:21:02;1.10;99.90
2967;DHT22;1493;51.496;7.210;2024-01-16T16:23:30;1.10;99.90
2967;DHT22;1493;51.496;7.210;2024-01-16T16:25:58;1.00;99.90
2967;DHT22;1493;51.496;7.210;2024-01-16T16:28:25;0.90;99.90
2967;DHT22;1493;51.496;7.210;2024-01-16T16:30:52;0.90;99.90
2967;DHT22;1493;51.496;7.210;2024-01-16T16:33:18;0.90;99.90
2967;DHT22;1493;51.496;7.210;2024-01-16T16:35:47;0.80;99.90
2967;DHT22;1493;51.496;7.210;2024-01-16T16:38:14;0.70;99.90
2967;DHT22;1493;51.496;7.210;2024-01-16T16:40:42;0.70;99.90
2967;DHT22;1493;51.496;7.210;2024-01-16T16:43:10;0.70;99.90